sensor_id;sensor_type;location;lat;lon;timestamp;temperature;humidity
36280;DHT22;22317;47.936;12.742;2023-06-01T00:01:47;13.80;50.00
36280;DHT22;22317;47.936;12.742;2023-06-01T00:04:13;13.70;50.00
36280;DHT22;22317;47.936;12.742;2023-06-01T00:06:40;13.70;50.20
36280;DHT22;22317;47.936;12.742;2023-06-01T00:09:06;13.60;50.30
36280;DHT22;22317;47.936;12.742;2023-06-01T00:11:33;13.60;50.50
36280;DHT22;22317;47.936;12.742;2023-06-01T00:13:59;13.50;50.50
36280;DHT22;22317;47.936;12.742;2023-06-01T00:16:25;13.50;50.70
36280;DHT22;22317;47.936;12.742;2023-06-01T00:18:51;13.50;50.80
36280;DHT22;22317;47.936;12.742;2023-06-01T00:21:19;13.50;50.90
36280;DHT22;22317;47.936;12.742;2023-06-01T00:23:45;13.40;50.90
36280;DHT22;22317;47.936;12.742;2023-06-01T00:26:11;13.40;50.90
36280;DHT22;22317;47.936;12.742;2023-06-01T00:28:38;13.40;51.00
36280;DHT22;22317;47.936;12.742;2023-06-01T00:31:04;13.30;51.10
36280;DHT22;22317;47.936;12.742;2023-06-01T00:33:29;13.30;51.20
36280;DHT22;22317;47.936;12.742;2023-06-01T00:35:55;13.30;51.20
36280;DHT22;22317;47.936;12.742;2023-06-01T00:38:21;13.30;51.40
36280;DHT22;22317;47.936;12.742;2023-06-01T00:40:47;13.20;51.30
36280;DHT22;22317;47.936;12.742;2023-06-01T00:43:15;13.20;51.40
36280;DHT22;22317;47.936;12.742;2023-06-01T00:45:41;13.10;51.30
36280;DHT22;22317;47.936;12.742;2023-06-01T00:48:07;13.10;51.50
36280;DHT22;22317;47.936;12.742;2023-06-01T00:50:33;13.00;51.60
36280;DHT22;22317;47.936;12.742;2023-06-01T00:53:01;13.00;51.80
36280;DHT22;22317;47.936;12.742;2023-06-01T00:55:28;13.00;51.80
36280;DHT22;22317;47.936;12.742;2023-06-01T00:57:55;13.00;51.80
36280;DHT22;22317;47.936;12.742;2023-06-01T01:00:21;12.90;51.80
36280;DHT22;22317;47.936;12.742;2023-06-01T01:02:48;12.90;51.90
36280;DHT22;22317;47.936;12.742;2023-06-01T01:05:15;12.90;51.80
36280;DHT22;22317;47.936;12.742;2023-06-01T01:16:24;12.80;52.20
36280;DHT22;22317;47.936;12.742;2023-06-01T01:21:39;12.70;52.20
36280;DHT22;22317;47.936;12.742;2023-06-01T01:24:55;12.70;52.10
36280;DHT22;22317;47.936;12.742;2023-06-01T01:27:23;12.70;52.40
36280;DHT22;22317;47.936;12.742;2023-06-01T01:30:02;12.70;52.30
36280;DHT22;22317;47.936;12.742;2023-06-01T01:32:31;12.60;52.40
36280;DHT22;22317;47.936;12.742;2023-06-01T01:34:59;12.60;52.40
36280;DHT22;22317;47.936;12.742;2023-06-01T01:37:26;12.60;52.40
36280;DHT22;22317;47.936;12.742;2023-06-01T01:39:52;12.50;52.30
36280;DHT22;22317;47.936;12.742;2023-06-01T01:42:17;12.50;52.50
36280;DHT22;22317;47.936;12.742;2023-06-01T01:44:44;12.50;52.70
36280;DHT22;22317;47.936;12.742;2023-06-01T01:49:55;12.50;52.90
36280;DHT22;22317;47.936;12.742;2023-06-01T01:52:26;12.50;52.80
36280;DHT22;22317;47.936;12.742;2023-06-01T01:54:55;12.40;52.80
36280;DHT22;22317;47.936;12.742;2023-06-01T01:57:23;12.40;52.70
36280;DHT22;22317;47.936;12.742;2023-06-01T01:59:50;12.30;52.50
36280;DHT22;22317;47.936;12.742;2023-06-01T02:02:16;12.30;52.70
36280;DHT22;22317;47.936;12.742;2023-06-01T02:04:44;12.20;52.70
36280;DHT22;22317;47.936;12.742;2023-06-01T02:07:12;12.10;52.90
36280;DHT22;22317;47.936;12.742;2023-06-01T02:09:39;12.10;53.00
36280;DHT22;22317;47.936;12.742;2023-06-01T02:12:07;12.00;53.20
36280;DHT22;22317;47.936;12.742;2023-06-01T02:14:34;12.00;53.20
36280;DHT22;22317;47.936;12.742;2023-06-01T02:16:59;12.00;53.30
36280;DHT22;22317;47.936;12.742;2023-06-01T02:19:26;12.00;53.40
36280;DHT22;22317;47.936;12.742;2023-06-01T02:21:52;11.90;53.40
36280;DHT22;22317;47.936;12.742;2023-06-01T02:24:19;11.90;53.50
36280;DHT22;22317;47.936;12.742;2023-06-01T02:26:48;11.90;53.60
36280;DHT22;22317;47.936;12.742;2023-06-01T02:29:17;11.90;53.70
36280;DHT22;22317;47.936;12.742;2023-06-01T02:31:45;11.80;53.70
36280;DHT22;22317;47.936;12.742;2023-06-01T02:34:11;11.80;53.80
36280;DHT22;22317;47.936;12.742;2023-06-01T02:36:37;11.70;53.80
36280;DHT22;22317;47.936;12.742;2023-06-01T02:39:03;11.70;53.90
36280;DHT22;22317;47.936;12.742;2023-06-01T02:41:29;11.70;53.90
36280;DHT22;22317;47.936;12.742;2023-06-01T02:43:54;11.70;54.20
36280;DHT22;22317;47.936;12.742;2023-06-01T02:46:20;11.70;54.10
36280;DHT22;22317;47.936;12.742;2023-06-01T02:48:47;11.70;54.10
36280;DHT22;22317;47.936;12.742;2023-06-01T02:51:13;11.60;54.00
36280;DHT22;22317;47.936;12.742;2023-06-01T02:53:42;11.60;54.00
36280;DHT22;22317;47.936;12.742;2023-06-01T02:56:10;11.60;54.10
36280;DHT22;22317;47.936;12.742;2023-06-01T02:58:54;11.60;54.20
36280;DHT22;22317;47.936;12.742;2023-06-01T03:01:28;11.50;54.20
36280;DHT22;22317;47.936;12.742;2023-06-01T03:04:04;11.50;54.20
36280;DHT22;22317;47.936;12.742;2023-06-01T03:06:31;11.50;54.40
36280;DHT22;22317;47.936;12.742;2023-06-01T03:09:00;11.50;54.40
36280;DHT22;22317;47.936;12.742;2023-06-01T03:11:45;11.50;54.40
36280;DHT22;22317;47.936;12.742;2023-06-01T03:14:11;11.50;62.10
36280;DHT22;22317;47.936;12.742;2023-06-01T03:16:36;11.50;69.40
36280;DHT22;22317;47.936;12.742;2023-06-01T03:19:16;11.40;69.30
36280;DHT22;22317;47.936;12.742;2023-06-01T03:21:42;11.40;67.70
36280;DHT22;22317;47.936;12.742;2023-06-01T03:24:08;11.40;54.40
36280;DHT22;22317;47.936;12.742;2023-06-01T03:26:34;11.40;59.90
36280;DHT22;22317;47.936;12.742;2023-06-01T03:29:01;11.40;54.60
36280;DHT22;22317;47.936;12.742;2023-06-01T03:31:28;11.40;54.50
36280;DHT22;22317;47.936;12.742;2023-06-01T03:33:56;11.30;54.50
36280;DHT22;22317;47.936;12.742;2023-06-01T03:36:22;11.30;54.60
36280;DHT22;22317;47.936;12.742;2023-06-01T03:38:47;11.30;54.70
36280;DHT22;22317;47.936;12.742;2023-06-01T03:41:14;11.30;54.80
36280;DHT22;22317;47.936;12.742;2023-06-01T03:43:40;11.30;56.20
36280;DHT22;22317;47.936;12.742;2023-06-01T03:46:06;11.30;54.80
36280;DHT22;22317;47.936;12.742;2023-06-01T03:48:32;11.30;54.80
36280;DHT22;22317;47.936;12.742;2023-06-01T03:50:57;11.30;54.90
36280;DHT22;22317;47.936;12.742;2023-06-01T03:53:23;11.30;54.90
36280;DHT22;22317;47.936;12.742;2023-06-01T03:55:52;11.30;55.50
36280;DHT22;22317;47.936;12.742;2023-06-01T03:58:32;11.30;54.90
36280;DHT22;22317;47.936;12.742;2023-06-01T04:00:58;11.30;54.90
36280;DHT22;22317;47.936;12.742;2023-06-01T04:03:26;11.30;55.00
36280;DHT22;22317;47.936;12.742;2023-06-01T04:05:52;11.30;55.00
36280;DHT22;22317;47.936;12.742;2023-06-01T04:08:25;11.30;55.00
36280;DHT22;22317;47.936;12.742;2023-06-01T04:10:51;11.30;55.10
36280;DHT22;22317;47.936;12.742;2023-06-01T04:13:18;11.40;55.10
36280;DHT22;22317;47.936;12.742;2023-06-01T04:15:45;11.70;55.30
36280;DHT22;22317;47.936;12.742;2023-06-01T04:18:11;11.40;55.20
36280;DHT22;22317;47.936;12.742;2023-06-01T04:20:47;11.50;55.20
36280;DHT22;22317;47.936;12.742;2023-06-01T04:23:14;11.50;55.20
36280;DHT22;22317;47.936;12.742;2023-06-01T04:25:40;11.60;55.20
36280;DHT22;22317;47.936;12.742;2023-06-01T04:28:10;11.60;55.10
36280;DHT22;22317;47.936;12.742;2023-06-01T04:30:36;11.60;55.10
36280;DHT22;22317;47.936;12.742;2023-06-01T04:33:02;11.60;55.20
36280;DHT22;22317;47.936;12.742;2023-06-01T04:35:29;11.70;55.30
36280;DHT22;22317;47.936;12.742;2023-06-01T04:37:55;11.70;55.30
36280;DHT22;22317;47.936;12.742;2023-06-01T04:40:21;11.80;55.30
36280;DHT22;22317;47.936;12.742;2023-06-01T04:42:47;11.80;55.20
36280;DHT22;22317;47.936;12.742;2023-06-01T04:45:23;11.90;55.30
36280;DHT22;22317;47.936;12.742;2023-06-01T04:47:51;12.00;55.30
36280;DHT22;22317;47.936;12.742;2023-06-01T04:50:40;12.00;55.20
36280;DHT22;22317;47.936;12.742;2023-06-01T04:53:06;12.20;63.90
36280;DHT22;22317;47.936;12.742;2023-06-01T04:55:32;12.20;55.30
36280;DHT22;22317;47.936;12.742;2023-06-01T04:57:57;12.20;55.20
36280;DHT22;22317;47.936;12.742;2023-06-01T05:00:23;12.30;55.30
36280;DHT22;22317;47.936;12.742;2023-06-01T05:02:49;12.40;55.30
36280;DHT22;22317;47.936;12.742;2023-06-01T05:05:16;12.50;55.20
36280;DHT22;22317;47.936;12.742;2023-06-01T05:07:43;12.60;55.20
36280;DHT22;22317;47.936;12.742;2023-06-01T05:10:11;12.70;55.10
36280;DHT22;22317;47.936;12.742;2023-06-01T05:12:42;12.80;55.10
36280;DHT22;22317;47.936;12.742;2023-06-01T05:15:08;12.80;55.00
36280;DHT22;22317;47.936;12.742;2023-06-01T05:17:35;13.00;55.00
36280;DHT22;22317;47.936;12.742;2023-06-01T05:20:05;13.10;54.90
36280;DHT22;22317;47.936;12.742;2023-06-01T05:22:31;13.20;54.70
36280;DHT22;22317;47.936;12.742;2023-06-01T05:24:56;13.30;54.60
36280;DHT22;22317;47.936;12.742;2023-06-01T05:27:23;13.30;54.60
36280;DHT22;22317;47.936;12.742;2023-06-01T05:29:48;13.50;54.50
36280;DHT22;22317;47.936;12.742;2023-06-01T05:32:14;13.60;54.40
36280;DHT22;22317;47.936;12.742;2023-06-01T05:34:41;13.70;54.30
36280;DHT22;22317;47.936;12.742;2023-06-01T05:37:07;13.70;57.30
36280;DHT22;22317;47.936;12.742;2023-06-01T05:39:32;13.80;54.00
36280;DHT22;22317;47.936;12.742;2023-06-01T05:41:58;13.80;55.30
36280;DHT22;22317;47.936;12.742;2023-06-01T05:44:33;13.90;53.70
36280;DHT22;22317;47.936;12.742;2023-06-01T05:46:59;14.10;53.70
36280;DHT22;22317;47.936;12.742;2023-06-01T05:49:25;14.10;53.50
36280;DHT22;22317;47.936;12.742;2023-06-01T05:51:51;14.30;53.40
36280;DHT22;22317;47.936;12.742;2023-06-01T05:54:17;14.30;53.30
36280;DHT22;22317;47.936;12.742;2023-06-01T05:56:44;14.50;53.20
36280;DHT22;22317;47.936;12.742;2023-06-01T05:59:10;14.50;53.10
36280;DHT22;22317;47.936;12.742;2023-06-01T06:01:36;14.70;52.90
36280;DHT22;22317;47.936;12.742;2023-06-01T06:04:02;14.80;52.70
36280;DHT22;22317;47.936;12.742;2023-06-01T06:06:28;14.90;52.40
36280;DHT22;22317;47.936;12.742;2023-06-01T06:08:53;15.00;52.30
36280;DHT22;22317;47.936;12.742;2023-06-01T06:11:19;15.00;52.30
36280;DHT22;22317;47.936;12.742;2023-06-01T06:13:50;15.10;52.20
36280;DHT22;22317;47.936;12.742;2023-06-01T06:16:16;15.10;52.20
36280;DHT22;22317;47.936;12.742;2023-06-01T06:18:41;15.20;52.20
36280;DHT22;22317;47.936;12.742;2023-06-01T06:21:07;15.30;52.10
36280;DHT22;22317;47.936;12.742;2023-06-01T06:23:33;15.30;52.10
36280;DHT22;22317;47.936;12.742;2023-06-01T06:25:58;15.30;52.10
36280;DHT22;22317;47.936;12.742;2023-06-01T06:28:24;15.40;52.10
36280;DHT22;22317;47.936;12.742;2023-06-01T06:30:52;15.50;52.10
36280;DHT22;22317;47.936;12.742;2023-06-01T06:33:17;15.50;52.00
36280;DHT22;22317;47.936;12.742;2023-06-01T06:35:43;15.60;51.80
36280;DHT22;22317;47.936;12.742;2023-06-01T06:38:11;15.70;51.70
36280;DHT22;22317;47.936;12.742;2023-06-01T06:40:37;15.80;51.60
36280;DHT22;22317;47.936;12.742;2023-06-01T06:43:02;15.90;51.30
36280;DHT22;22317;47.936;12.742;2023-06-01T06:45:28;15.90;51.20
36280;DHT22;22317;47.936;12.742;2023-06-01T06:47:54;16.00;51.00
36280;DHT22;22317;47.936;12.742;2023-06-01T06:50:19;16.10;50.70
36280;DHT22;22317;47.936;12.742;2023-06-01T06:52:45;16.20;50.50
36280;DHT22;22317;47.936;12.742;2023-06-01T06:55:11;16.30;50.10
36280;DHT22;22317;47.936;12.742;2023-06-01T06:57:37;16.40;50.10
36280;DHT22;22317;47.936;12.742;2023-06-01T07:00:09;16.40;49.90
36280;DHT22;22317;47.936;12.742;2023-06-01T07:02:40;16.50;49.90
36280;DHT22;22317;47.936;12.742;2023-06-01T07:05:08;16.50;49.80
36280;DHT22;22317;47.936;12.742;2023-06-01T07:07:34;16.60;49.90
36280;DHT22;22317;47.936;12.742;2023-06-01T07:10:00;16.70;49.70
36280;DHT22;22317;47.936;12.742;2023-06-01T07:12:25;16.40;49.60
36280;DHT22;22317;47.936;12.742;2023-06-01T07:14:51;16.90;49.60
36280;DHT22;22317;47.936;12.742;2023-06-01T07:17:17;17.10;49.40
36280;DHT22;22317;47.936;12.742;2023-06-01T07:19:43;17.20;49.30
36280;DHT22;22317;47.936;12.742;2023-06-01T07:22:08;17.30;49.10
36280;DHT22;22317;47.936;12.742;2023-06-01T07:24:34;17.30;48.90
36280;DHT22;22317;47.936;12.742;2023-06-01T07:27:00;17.40;48.40
36280;DHT22;22317;47.936;12.742;2023-06-01T07:29:26;17.50;48.20
36280;DHT22;22317;47.936;12.742;2023-06-01T07:31:53;17.50;48.20
36280;DHT22;22317;47.936;12.742;2023-06-01T07:34:19;17.60;48.20
36280;DHT22;22317;47.936;12.742;2023-06-01T07:36:48;17.70;48.00
36280;DHT22;22317;47.936;12.742;2023-06-01T07:39:14;17.80;47.70
36280;DHT22;22317;47.936;12.742;2023-06-01T07:41:40;17.90;47.60
36280;DHT22;22317;47.936;12.742;2023-06-01T07:44:06;17.90;47.40
36280;DHT22;22317;47.936;12.742;2023-06-01T07:46:33;17.90;47.40
36280;DHT22;22317;47.936;12.742;2023-06-01T07:48:59;18.10;47.30
36280;DHT22;22317;47.936;12.742;2023-06-01T07:51:24;18.20;48.00
36280;DHT22;22317;47.936;12.742;2023-06-01T07:53:50;18.30;47.60
36280;DHT22;22317;47.936;12.742;2023-06-01T07:56:16;18.40;47.50
36280;DHT22;22317;47.936;12.742;2023-06-01T07:58:42;18.60;47.50
36280;DHT22;22317;47.936;12.742;2023-06-01T08:01:09;18.70;47.50
36280;DHT22;22317;47.936;12.742;2023-06-01T08:03:36;18.80;47.20
36280;DHT22;22317;47.936;12.742;2023-06-01T08:06:02;18.90;46.80
36280;DHT22;22317;47.936;12.742;2023-06-01T08:08:31;19.00;46.60
36280;DHT22;22317;47.936;12.742;2023-06-01T08:10:56;19.10;46.40
36280;DHT22;22317;47.936;12.742;2023-06-01T08:13:22;19.20;46.10
36280;DHT22;22317;47.936;12.742;2023-06-01T08:15:51;19.30;45.90
36280;DHT22;22317;47.936;12.742;2023-06-01T08:18:18;19.40;45.80
36280;DHT22;22317;47.936;12.742;2023-06-01T08:20:45;19.60;45.70
36280;DHT22;22317;47.936;12.742;2023-06-01T08:23:11;19.70;45.30
36280;DHT22;22317;47.936;12.742;2023-06-01T08:25:37;19.80;45.10
36280;DHT22;22317;47.936;12.742;2023-06-01T08:28:03;19.80;44.70
36280;DHT22;22317;47.936;12.742;2023-06-01T08:30:29;19.90;44.50
36280;DHT22;22317;47.936;12.742;2023-06-01T08:32:54;20.10;44.50
36280;DHT22;22317;47.936;12.742;2023-06-01T08:35:20;20.10;44.60
36280;DHT22;22317;47.936;12.742;2023-06-01T08:37:47;20.30;44.80
36280;DHT22;22317;47.936;12.742;2023-06-01T08:40:13;20.40;44.40
36280;DHT22;22317;47.936;12.742;2023-06-01T08:42:55;20.50;44.40
36280;DHT22;22317;47.936;12.742;2023-06-01T08:45:23;20.70;44.20
36280;DHT22;22317;47.936;12.742;2023-06-01T08:47:53;20.80;44.00
36280;DHT22;22317;47.936;12.742;2023-06-01T08:50:20;21.00;44.00
36280;DHT22;22317;47.936;12.742;2023-06-01T08:52:46;21.10;43.80
36280;DHT22;22317;47.936;12.742;2023-06-01T08:55:14;21.60;43.80
36280;DHT22;22317;47.936;12.742;2023-06-01T08:57:43;21.40;43.10
36280;DHT22;22317;47.936;12.742;2023-06-01T09:00:11;21.50;42.70
36280;DHT22;22317;47.936;12.742;2023-06-01T09:02:37;21.60;42.20
36280;DHT22;22317;47.936;12.742;2023-06-01T09:05:03;21.70;41.90
36280;DHT22;22317;47.936;12.742;2023-06-01T09:07:30;21.80;41.50
36280;DHT22;22317;47.936;12.742;2023-06-01T09:09:57;21.80;41.00
36280;DHT22;22317;47.936;12.742;2023-06-01T09:12:23;21.90;41.00
36280;DHT22;22317;47.936;12.742;2023-06-01T09:14:50;22.00;41.00
36280;DHT22;22317;47.936;12.742;2023-06-01T09:17:23;22.10;40.90
36280;DHT22;22317;47.936;12.742;2023-06-01T09:19:55;22.20;40.60
36280;DHT22;22317;47.936;12.742;2023-06-01T09:22:21;22.20;40.20
36280;DHT22;22317;47.936;12.742;2023-06-01T09:25:00;22.40;40.10
36280;DHT22;22317;47.936;12.742;2023-06-01T09:27:26;22.50;39.50
36280;DHT22;22317;47.936;12.742;2023-06-01T09:29:56;22.50;39.60
36280;DHT22;22317;47.936;12.742;2023-06-01T09:32:22;22.60;39.00
36280;DHT22;22317;47.936;12.742;2023-06-01T09:34:48;22.60;39.20
36280;DHT22;22317;47.936;12.742;2023-06-01T09:37:14;22.70;39.30
36280;DHT22;22317;47.936;12.742;2023-06-01T09:39:40;22.70;39.00
36280;DHT22;22317;47.936;12.742;2023-06-01T09:42:06;22.80;38.70
36280;DHT22;22317;47.936;12.742;2023-06-01T09:44:37;22.90;39.00
36280;DHT22;22317;47.936;12.742;2023-06-01T09:47:06;22.90;38.80
36280;DHT22;22317;47.936;12.742;2023-06-01T09:49:35;23.00;38.90
36280;DHT22;22317;47.936;12.742;2023-06-01T09:54:33;23.20;38.30
36280;DHT22;22317;47.936;12.742;2023-06-01T09:57:01;23.20;38.20
36280;DHT22;22317;47.936;12.742;2023-06-01T09:59:28;23.30;38.30
36280;DHT22;22317;47.936;12.742;2023-06-01T10:01:56;23.40;38.50
36280;DHT22;22317;47.936;12.742;2023-06-01T10:04:26;23.50;38.50
36280;DHT22;22317;47.936;12.742;2023-06-01T10:06:55;23.60;37.60
36280;DHT22;22317;47.936;12.742;2023-06-01T10:09:24;23.70;37.50
36280;DHT22;22317;47.936;12.742;2023-06-01T10:11:52;23.70;37.20
36280;DHT22;22317;47.936;12.742;2023-06-01T10:14:21;23.80;37.30
36280;DHT22;22317;47.936;12.742;2023-06-01T10:16:49;23.90;38.00
36280;DHT22;22317;47.936;12.742;2023-06-01T10:19:15;24.00;37.40
36280;DHT22;22317;47.936;12.742;2023-06-01T10:21:43;24.10;37.20
36280;DHT22;22317;47.936;12.742;2023-06-01T10:24:10;24.10;36.90
36280;DHT22;22317;47.936;12.742;2023-06-01T10:26:54;24.20;36.70
36280;DHT22;22317;47.936;12.742;2023-06-01T10:29:23;24.20;36.40
36280;DHT22;22317;47.936;12.742;2023-06-01T10:31:50;24.20;36.40
36280;DHT22;22317;47.936;12.742;2023-06-01T10:34:39;24.30;36.30
36280;DHT22;22317;47.936;12.742;2023-06-01T10:37:12;24.30;36.10
36280;DHT22;22317;47.936;12.742;2023-06-01T10:39:38;24.30;36.10
36280;DHT22;22317;47.936;12.742;2023-06-01T10:47:05;24.50;35.70
36280;DHT22;22317;47.936;12.742;2023-06-01T10:52:35;24.80;35.70
36280;DHT22;22317;47.936;12.742;2023-06-01T10:57:45;24.90;35.10
36280;DHT22;22317;47.936;12.742;2023-06-01T11:13:37;25.30;34.00
36280;DHT22;22317;47.936;12.742;2023-06-01T11:18:51;25.40;34.10
36280;DHT22;22317;47.936;12.742;2023-06-01T11:21:43;25.50;34.10
36280;DHT22;22317;47.936;12.742;2023-06-01T11:34:36;26.20;32.20
36280;DHT22;22317;47.936;12.742;2023-06-01T11:37:05;26.30;32.30
36280;DHT22;22317;47.936;12.742;2023-06-01T11:39:31;26.30;32.70
36280;DHT22;22317;47.936;12.742;2023-06-01T11:42:15;26.30;32.50
36280;DHT22;22317;47.936;12.742;2023-06-01T11:44:43;26.40;32.20
36280;DHT22;22317;47.936;12.742;2023-06-01T11:52:11;26.70;48.90
36280;DHT22;22317;47.936;12.742;2023-06-01T11:54:37;26.80;49.60
36280;DHT22;22317;47.936;12.742;2023-06-01T11:57:04;26.90;50.10
36280;DHT22;22317;47.936;12.742;2023-06-01T11:59:45;26.90;50.70
36280;DHT22;22317;47.936;12.742;2023-06-01T12:02:21;26.90;51.20
36280;DHT22;22317;47.936;12.742;2023-06-01T12:04:59;27.00;52.20
36280;DHT22;22317;47.936;12.742;2023-06-01T12:07:27;27.00;53.50
36280;DHT22;22317;47.936;12.742;2023-06-01T12:49:26;27.70;57.80
36280;DHT22;22317;47.936;12.742;2023-06-01T12:51:53;27.90;29.20
36280;DHT22;22317;47.936;12.742;2023-06-01T12:54:19;28.00;29.30
36280;DHT22;22317;47.936;12.742;2023-06-01T12:56:47;28.10;29.40
36280;DHT22;22317;47.936;12.742;2023-06-01T12:59:14;28.20;29.20
36280;DHT22;22317;47.936;12.742;2023-06-01T13:01:40;28.30;29.10
36280;DHT22;22317;47.936;12.742;2023-06-01T13:04:06;28.40;29.10
36280;DHT22;22317;47.936;12.742;2023-06-01T13:06:33;28.40;29.20
36280;DHT22;22317;47.936;12.742;2023-06-01T13:09:00;28.60;29.20
36280;DHT22;22317;47.936;12.742;2023-06-01T13:11:26;28.60;29.20
36280;DHT22;22317;47.936;12.742;2023-06-01T13:13:52;28.70;28.80
36280;DHT22;22317;47.936;12.742;2023-06-01T13:16:19;28.70;28.70
36280;DHT22;22317;47.936;12.742;2023-06-01T13:18:46;28.70;28.60
36280;DHT22;22317;47.936;12.742;2023-06-01T13:21:14;28.70;28.70
36280;DHT22;22317;47.936;12.742;2023-06-01T13:23:41;28.80;28.50
36280;DHT22;22317;47.936;12.742;2023-06-01T13:26:07;28.70;28.10
36280;DHT22;22317;47.936;12.742;2023-06-01T13:28:33;28.80;28.30
36280;DHT22;22317;47.936;12.742;2023-06-01T13:30:59;28.80;28.40
36280;DHT22;22317;47.936;12.742;2023-06-01T13:33:25;28.90;28.50
36280;DHT22;22317;47.936;12.742;2023-06-01T13:35:51;29.00;28.50
36280;DHT22;22317;47.936;12.742;2023-06-01T13:38:17;29.20;28.50
36280;DHT22;22317;47.936;12.742;2023-06-01T13:40:42;29.30;28.30
36280;DHT22;22317;47.936;12.742;2023-06-01T13:43:08;29.30;28.10
36280;DHT22;22317;47.936;12.742;2023-06-01T13:45:34;29.30;27.90
36280;DHT22;22317;47.936;12.742;2023-06-01T13:48:01;29.50;27.70
36280;DHT22;22317;47.936;12.742;2023-06-01T13:50:27;29.50;27.50
36280;DHT22;22317;47.936;12.742;2023-06-01T13:52:52;29.60;27.50
36280;DHT22;22317;47.936;12.742;2023-06-01T13:55:20;29.70;27.30
36280;DHT22;22317;47.936;12.742;2023-06-01T13:57:46;29.70;26.90
36280;DHT22;22317;47.936;12.742;2023-06-01T14:00:14;29.70;26.60
36280;DHT22;22317;47.936;12.742;2023-06-01T14:02:42;29.60;26.40
36280;DHT22;22317;47.936;12.742;2023-06-01T14:05:08;29.60;26.60
36280;DHT22;22317;47.936;12.742;2023-06-01T14:07:36;29.60;26.80
36280;DHT22;22317;47.936;12.742;2023-06-01T14:10:02;29.60;27.40
36280;DHT22;22317;47.936;12.742;2023-06-01T14:12:28;29.60;26.80
36280;DHT22;22317;47.936;12.742;2023-06-01T14:14:54;29.60;26.90
36280;DHT22;22317;47.936;12.742;2023-06-01T14:17:19;29.70;26.70
36280;DHT22;22317;47.936;12.742;2023-06-01T14:19:45;29.70;26.60
36280;DHT22;22317;47.936;12.742;2023-06-01T14:22:11;29.60;26.40
36280;DHT22;22317;47.936;12.742;2023-06-01T14:24:37;29.60;26.50
36280;DHT22;22317;47.936;12.742;2023-06-01T14:27:02;29.50;26.60
36280;DHT22;22317;47.936;12.742;2023-06-01T14:29:28;29.40;26.50
36280;DHT22;22317;47.936;12.742;2023-06-01T14:31:54;29.40;26.50
36280;DHT22;22317;47.936;12.742;2023-06-01T14:34:20;29.50;26.60
36280;DHT22;22317;47.936;12.742;2023-06-01T14:36:46;29.40;26.60
36280;DHT22;22317;47.936;12.742;2023-06-01T14:39:11;29.30;26.50
36280;DHT22;22317;47.936;12.742;2023-06-01T14:41:37;29.10;26.40
36280;DHT22;22317;47.936;12.742;2023-06-01T14:44:04;29.10;26.30
36280;DHT22;22317;47.936;12.742;2023-06-01T14:46:30;29.00;26.50
36280;DHT22;22317;47.936;12.742;2023-06-01T14:48:56;29.10;26.40
36280;DHT22;22317;47.936;12.742;2023-06-01T14:51:23;29.00;26.20
36280;DHT22;22317;47.936;12.742;2023-06-01T14:53:49;28.80;26.30
36280;DHT22;22317;47.936;12.742;2023-06-01T14:56:15;28.70;26.40
36280;DHT22;22317;47.936;12.742;2023-06-01T14:58:40;28.70;26.70
36280;DHT22;22317;47.936;12.742;2023-06-01T15:01:06;28.60;26.50
36280;DHT22;22317;47.936;12.742;2023-06-01T15:03:32;28.50;26.60
36280;DHT22;22317;47.936;12.742;2023-06-01T15:05:58;28.50;26.60
36280;DHT22;22317;47.936;12.742;2023-06-01T15:08:23;28.50;26.60
36280;DHT22;22317;47.936;12.742;2023-06-01T15:10:51;28.40;26.60
36280;DHT22;22317;47.936;12.742;2023-06-01T15:13:19;28.40;26.60
36280;DHT22;22317;47.936;12.742;2023-06-01T15:15:45;28.40;26.80
36280;DHT22;22317;47.936;12.742;2023-06-01T15:18:10;28.30;26.70
36280;DHT22;22317;47.936;12.742;2023-06-01T15:20:36;28.30;26.40
36280;DHT22;22317;47.936;12.742;2023-06-01T15:23:02;28.20;26.40
36280;DHT22;22317;47.936;12.742;2023-06-01T15:25:27;28.90;26.80
36280;DHT22;22317;47.936;12.742;2023-06-01T15:27:53;28.20;26.60
36280;DHT22;22317;47.936;12.742;2023-06-01T15:30:19;28.20;26.70
36280;DHT22;22317;47.936;12.742;2023-06-01T15:32:46;28.10;26.40
36280;DHT22;22317;47.936;12.742;2023-06-01T15:35:12;28.10;26.00
36280;DHT22;22317;47.936;12.742;2023-06-01T15:37:37;28.10;26.20
36280;DHT22;22317;47.936;12.742;2023-06-01T15:40:12;28.10;26.30
36280;DHT22;22317;47.936;12.742;2023-06-01T15:42:38;28.00;26.10
36280;DHT22;22317;47.936;12.742;2023-06-01T15:45:06;27.90;26.10
36280;DHT22;22317;47.936;12.742;2023-06-01T15:47:32;27.90;26.80
36280;DHT22;22317;47.936;12.742;2023-06-01T15:49:58;27.80;26.20
36280;DHT22;22317;47.936;12.742;2023-06-01T15:52:23;27.70;26.10
36280;DHT22;22317;47.936;12.742;2023-06-01T15:54:49;27.60;26.30
36280;DHT22;22317;47.936;12.742;2023-06-01T15:57:15;27.50;26.70
36280;DHT22;22317;47.936;12.742;2023-06-01T15:59:41;27.40;26.90
36280;DHT22;22317;47.936;12.742;2023-06-01T16:02:07;27.30;27.10
36280;DHT22;22317;47.936;12.742;2023-06-01T16:04:32;27.10;26.90
36280;DHT22;22317;47.936;12.742;2023-06-01T16:06:58;27.00;26.90
36280;DHT22;22317;47.936;12.742;2023-06-01T16:09:24;26.90;27.00
36280;DHT22;22317;47.936;12.742;2023-06-01T16:11:50;26.70;27.20
36280;DHT22;22317;47.936;12.742;2023-06-01T16:14:15;26.60;27.30
36280;DHT22;22317;47.936;12.742;2023-06-01T16:16:41;26.40;27.20
36280;DHT22;22317;47.936;12.742;2023-06-01T16:19:08;26.30;27.60
36280;DHT22;22317;47.936;12.742;2023-06-01T16:21:35;26.10;27.60
36280;DHT22;22317;47.936;12.742;2023-06-01T16:24:01;26.00;27.80
36280;DHT22;22317;47.936;12.742;2023-06-01T16:26:28;25.90;28.00
36280;DHT22;22317;47.936;12.742;2023-06-01T16:28:54;25.80;28.20
36280;DHT22;22317;47.936;12.742;2023-06-01T16:31:20;25.70;28.30
36280;DHT22;22317;47.936;12.742;2023-06-01T16:33:47;25.60;28.50
36280;DHT22;22317;47.936;12.742;2023-06-01T16:36:12;25.50;28.60
36280;DHT22;22317;47.936;12.742;2023-06-01T16:38:38;25.40;28.70
36280;DHT22;22317;47.936;12.742;2023-06-01T16:41:04;25.40;28.80
36280;DHT22;22317;47.936;12.742;2023-06-01T16:43:30;25.20;28.70
36280;DHT22;22317;47.936;12.742;2023-06-01T16:45:56;25.10;28.70
36280;DHT22;22317;47.936;12.742;2023-06-01T16:48:22;25.00;28.80
36280;DHT22;22317;47.936;12.742;2023-06-01T16:50:49;24.90;29.10
36280;DHT22;22317;47.936;12.742;2023-06-01T16:53:15;24.90;29.30
36280;DHT22;22317;47.936;12.742;2023-06-01T16:55:41;24.80;29.40